createdAt,value
2023-12-11T00:01:54.329Z,101456.22
2023-12-11T00:04:21.542Z,101439.16
2023-12-11T00:06:48.832Z,101466.81
2023-12-11T00:09:16.129Z,101469.63
2023-12-11T00:11:43.263Z,101476.84
2023-12-11T00:14:10.612Z,101470.41
2023-12-11T00:16:38.272Z,101476.75
2023-12-11T00:19:05.570Z,101457.06
2023-12-11T00:21:32.893Z,101416.25
2023-12-11T00:24:00.007Z,101476.63
2023-12-11T00:26:27.186Z,101446.59
2023-12-11T00:28:54.240Z,101475.09
2023-12-11T00:31:23.044Z,101461.16
2023-12-11T00:33:50.456Z,101473.16
2023-12-11T00:36:17.700Z,101476.75
2023-12-11T00:38:44.838Z,101471.91
2023-12-11T00:41:12.193Z,101482.69
2023-12-11T00:43:45.188Z,101445.00
2023-12-11T00:46:25.353Z,101473.81
2023-12-11T00:48:52.880Z,101456.63
2023-12-11T00:51:21.715Z,101474.66
2023-12-11T00:53:49.419Z,101461.50
2023-12-11T00:56:17.130Z,101484.91
2023-12-11T00:58:44.825Z,101476.03
2023-12-11T01:01:12.172Z,101487.31
2023-12-11T01:03:40.216Z,101474.41
2023-12-11T01:06:08.503Z,101469.97
2023-12-11T01:08:40.095Z,101455.94
2023-12-11T01:11:08.014Z,101427.09
2023-12-11T01:13:35.278Z,101443.94
2023-12-11T01:16:02.474Z,101455.06
2023-12-11T01:18:30.095Z,101456.59
2023-12-11T01:20:57.325Z,101466.19
2023-12-11T01:23:24.574Z,101440.16
2023-12-11T01:25:51.714Z,101470.13
2023-12-11T01:28:20.154Z,101444.47
2023-12-11T01:30:47.489Z,101407.69
2023-12-11T01:33:14.865Z,101455.66
2023-12-11T01:35:42.263Z,101447.66
2023-12-11T01:38:09.412Z,101431.63
2023-12-11T01:40:36.617Z,101434.78
2023-12-11T01:43:19.451Z,101443.25
2023-12-11T01:45:51.902Z,101442.09
2023-12-11T01:48:19.258Z,101447.75
2023-12-11T01:50:46.714Z,101442.59
2023-12-11T01:53:14.382Z,101432.59
2023-12-11T01:55:42.157Z,101444.66
2023-12-11T01:58:10.033Z,101421.91
2023-12-11T02:00:37.283Z,101423.56
2023-12-11T02:03:04.509Z,101417.53
2023-12-11T02:05:31.704Z,101417.56
2023-12-11T02:08:00.081Z,101428.06
2023-12-11T02:10:27.206Z,101416.91
2023-12-11T02:12:54.901Z,101413.25
2023-12-11T02:15:58.075Z,101415.25
2023-12-11T02:18:25.746Z,101408.09
2023-12-11T02:20:52.936Z,101419.66
2023-12-11T02:23:44.847Z,101408.84
2023-12-11T02:26:12.784Z,101397.59
2023-12-11T02:28:40.110Z,101407.22
2023-12-11T02:31:07.381Z,101385.56
2023-12-11T02:33:34.557Z,101393.91
2023-12-11T02:36:02.301Z,101389.88
2023-12-11T02:38:29.929Z,101373.91
2023-12-11T02:40:57.349Z,101397.47
2023-12-11T02:43:24.661Z,101359.78
2023-12-11T02:45:51.952Z,101399.81
2023-12-11T02:48:19.798Z,101399.88
2023-12-11T02:50:47.161Z,101374.28
2023-12-11T02:53:14.520Z,101395.03
2023-12-11T02:55:41.764Z,101385.41
2023-12-11T02:58:09.158Z,101389.78
2023-12-11T03:00:37.489Z,101386.13
2023-12-11T03:03:05.058Z,101354.91
2023-12-11T03:05:32.656Z,101385.31
2023-12-11T03:07:59.779Z,101368.47
2023-12-11T03:10:26.847Z,101396.56
2023-12-11T03:12:54.028Z,101397.41
2023-12-11T03:15:21.269Z,101389.78
2023-12-11T03:17:48.697Z,101398.53
2023-12-11T03:20:15.948Z,101359.72
2023-12-11T03:22:43.385Z,101382.00
2023-12-11T03:25:10.839Z,101398.38
2023-12-11T03:27:38.129Z,101400.78
2023-12-11T03:30:06.021Z,101387.53
2023-12-11T03:32:33.734Z,101400.28
2023-12-11T03:35:00.899Z,101393.84
2023-12-11T03:37:28.456Z,101379.78
2023-12-11T03:39:55.814Z,101374.97
2023-12-11T03:42:22.999Z,101384.97
2023-12-11T03:44:50.766Z,101372.16
2023-12-11T03:47:18.740Z,101389.81
2023-12-11T03:49:46.040Z,101380.13
2023-12-11T03:52:13.393Z,101396.19
2023-12-11T03:54:40.576Z,101387.41
2023-12-11T03:57:07.776Z,101384.19
2023-12-11T03:59:35.590Z,101401.09
2023-12-11T04:02:03.041Z,101328.03
2023-12-11T04:04:31.526Z,101390.31
2023-12-11T04:06:58.842Z,101396.75
2023-12-11T04:09:26.063Z,101381.19
2023-12-11T04:11:53.217Z,101394.78
2023-12-11T04:14:20.556Z,101375.53
2023-12-11T04:16:47.700Z,101386.72
2023-12-11T04:19:14.946Z,101395.56
2023-12-11T04:21:42.641Z,101395.97
2023-12-11T04:24:12.628Z,101402.03
2023-12-11T04:26:41.516Z,101395.22
2023-12-11T04:29:08.636Z,101401.28
2023-12-11T04:31:35.734Z,101363.69
2023-12-11T04:34:03.441Z,101389.28
2023-12-11T04:36:30.878Z,101388.47
2023-12-11T04:38:58.030Z,101383.72
2023-12-11T04:41:25.199Z,101392.59
2023-12-11T04:43:52.409Z,101398.25
2023-12-11T04:46:19.596Z,101396.66
2023-12-11T04:48:46.832Z,101402.28
2023-12-11T04:51:14.033Z,101405.13
2023-12-11T04:53:41.133Z,101411.19
2023-12-11T04:56:09.386Z,101400.00
2023-12-11T04:58:36.524Z,101402.81
2023-12-11T05:01:04.195Z,101412.84
2023-12-11T05:03:31.605Z,101415.25
2023-12-11T05:05:58.749Z,101406.47
2023-12-11T05:08:28.025Z,101417.75
2023-12-11T05:10:57.413Z,101419.03
2023-12-11T05:13:24.992Z,101418.22
2023-12-11T05:15:52.353Z,101416.66
2023-12-11T05:18:19.704Z,101406.63
2023-12-11T05:20:46.976Z,101411.09
2023-12-11T05:23:14.165Z,101418.31
2023-12-11T05:25:41.333Z,101412.75
2023-12-11T05:28:08.523Z,101426.81
2023-12-11T05:30:35.749Z,101432.41
2023-12-11T05:33:03.191Z,101411.56
2023-12-11T05:35:30.545Z,101417.91
2023-12-11T05:37:59.839Z,101430.69
2023-12-11T05:40:27.611Z,101423.06
2023-12-11T05:42:55.032Z,101428.69
2023-12-11T05:45:22.411Z,101424.25
2023-12-11T05:47:49.642Z,101417.84
2023-12-11T05:50:17.072Z,101427.84
2023-12-11T05:52:45.473Z,101412.25
2023-12-11T05:55:13.143Z,101439.50
2023-12-11T05:57:40.613Z,101426.69
2023-12-11T06:00:08.685Z,101415.94
2023-12-11T06:02:35.936Z,101422.75
2023-12-11T06:05:03.263Z,101445.69
2023-12-11T06:07:30.676Z,101437.28
2023-12-11T06:09:58.067Z,101445.31
2023-12-11T06:12:25.275Z,101419.28
2023-12-11T06:14:52.563Z,101440.53
2023-12-11T06:17:20.837Z,101444.53
2023-12-11T06:19:48.141Z,101439.75
2023-12-11T06:22:15.527Z,101438.94
2023-12-11T06:24:42.955Z,101451.75
2023-12-11T06:27:10.453Z,101422.09
2023-12-11T06:29:39.363Z,101455.34
2023-12-11T06:32:07.000Z,101457.34
2023-12-11T06:34:35.008Z,101456.53
2023-12-11T06:37:02.430Z,101463.75
2023-12-11T06:39:29.954Z,101473.41
2023-12-11T06:41:58.799Z,101471.78
2023-12-11T06:44:26.880Z,101474.59
2023-12-11T06:46:54.596Z,101462.16
2023-12-11T06:49:22.519Z,101454.94
2023-12-11T06:51:50.834Z,101462.94
2023-12-11T06:54:18.175Z,101466.97
2023-12-11T06:56:45.376Z,101489.81
2023-12-11T06:59:12.487Z,101486.63
2023-12-11T07:01:40.015Z,101494.22
2023-12-11T07:04:07.460Z,101467.75
2023-12-11T07:06:34.916Z,101478.16
2023-12-11T07:09:02.193Z,101462.94
2023-12-11T07:11:29.430Z,101451.31
2023-12-11T07:13:56.994Z,101457.34
2023-12-11T07:16:25.201Z,101455.31
2023-12-11T07:18:54.234Z,101470.94
2023-12-11T07:21:21.642Z,101461.72
2023-12-11T07:23:51.875Z,101462.88
2023-12-11T07:26:19.199Z,101467.72
2023-12-11T07:28:46.433Z,101455.28
2023-12-11T07:31:13.771Z,101460.50
2023-12-11T07:33:41.142Z,101466.94
2023-12-11T07:36:08.729Z,101453.72
2023-12-11T07:38:35.987Z,101471.72
2023-12-11T07:41:06.206Z,101478.16
2023-12-11T07:43:35.020Z,101473.72
2023-12-11T07:46:03.443Z,101459.66
2023-12-11T07:48:32.032Z,101446.00
2023-12-11T07:50:59.501Z,101463.63
2023-12-11T07:53:26.674Z,101456.00
2023-12-11T07:55:53.770Z,101451.16
2023-12-11T07:58:21.016Z,101458.72
2023-12-11T08:00:48.501Z,101450.25
2023-12-11T08:03:15.742Z,101441.72
2023-12-11T08:05:42.910Z,101415.97
2023-12-11T08:08:10.172Z,101433.03
2023-12-11T08:10:37.363Z,101425.38
2023-12-11T08:13:04.786Z,101427.00
2023-12-11T08:15:31.916Z,101413.75
2023-12-11T08:17:59.499Z,101408.47
2023-12-11T08:20:26.791Z,101404.00
2023-12-11T08:22:53.888Z,101429.53
2023-12-11T08:25:21.045Z,101425.78
2023-12-11T08:27:48.351Z,101427.69
2023-12-11T08:30:15.485Z,101417.97
2023-12-11T08:32:42.945Z,101437.91
2023-12-11T08:35:10.434Z,101445.53
2023-12-11T08:37:38.238Z,101433.88
2023-12-11T08:40:07.224Z,101422.28
2023-12-11T08:42:40.119Z,101439.66
2023-12-11T08:45:09.546Z,101409.88
2023-12-11T08:47:39.446Z,101438.31
2023-12-11T08:50:09.249Z,101420.31
2023-12-11T08:52:38.151Z,101416.53
2023-12-11T08:55:06.775Z,101423.00
2023-12-11T08:57:34.743Z,101423.56
2023-12-11T09:00:02.365Z,101416.06
2023-12-11T09:02:29.756Z,101421.63
2023-12-11T09:04:57.008Z,101419.72
2023-12-11T09:07:24.244Z,101422.31
2023-12-11T09:09:51.531Z,101407.88
2023-12-11T09:12:28.087Z,101411.50
2023-12-11T09:15:01.515Z,101376.94
2023-12-11T09:17:30.366Z,101376.81
2023-12-11T09:19:58.321Z,101383.06
2023-12-11T09:22:26.504Z,101388.72
2023-12-11T09:24:53.801Z,101352.00
2023-12-11T09:27:21.388Z,101366.47
2023-12-11T09:29:50.548Z,101373.38
2023-12-11T09:32:18.178Z,101332.38
2023-12-11T09:34:45.909Z,101347.47
2023-12-11T09:37:13.438Z,101346.47
2023-12-11T09:39:41.010Z,101342.94
2023-12-11T09:42:13.662Z,101344.56
2023-12-11T09:44:46.977Z,101339.00
2023-12-11T09:47:27.645Z,101332.00
2023-12-11T09:49:55.439Z,101321.53
2023-12-11T09:52:25.929Z,101304.44
2023-12-11T09:54:53.127Z,101295.03
2023-12-11T09:57:21.072Z,101293.03
2023-12-11T09:59:51.844Z,101279.91
2023-12-11T10:02:19.341Z,101289.22
2023-12-11T10:05:26.142Z,101311.47
2023-12-11T10:07:53.427Z,101309.69
2023-12-11T10:10:23.203Z,101312.91
2023-12-11T10:12:51.083Z,101303.06
2023-12-11T10:15:26.815Z,101312.00
2023-12-11T10:18:03.653Z,101299.44
2023-12-11T10:20:32.111Z,101289.91
2023-12-11T10:23:04.075Z,101259.97
2023-12-11T10:25:32.682Z,101268.63
2023-12-11T10:28:08.549Z,101271.53
2023-12-11T10:30:54.445Z,101264.00
2023-12-11T10:33:24.350Z,101262.44
2023-12-11T10:35:52.340Z,101267.72
2023-12-11T10:38:28.985Z,101268.81
2023-12-11T10:40:57.721Z,101254.63
2023-12-11T10:43:25.019Z,101269.91
2023-12-11T10:45:52.947Z,101253.84
2023-12-11T10:48:22.230Z,101264.69
2023-12-11T10:50:50.178Z,101238.78
2023-12-11T10:53:18.478Z,101231.25
2023-12-11T10:55:48.088Z,101223.84
2023-12-11T10:58:15.850Z,101206.09
2023-12-11T11:00:45.969Z,101222.81
2023-12-11T11:03:14.488Z,101203.91
2023-12-11T11:05:42.669Z,101214.78
2023-12-11T11:08:31.507Z,101191.31
2023-12-11T11:11:02.705Z,101167.63
2023-12-11T11:13:35.650Z,101171.34
2023-12-11T11:16:04.187Z,101177.84
2023-12-11T11:19:07.580Z,101174.44
2023-12-11T11:21:34.814Z,101171.63
2023-12-11T11:24:03.268Z,101139.00
2023-12-11T11:26:36.204Z,101163.91
2023-12-11T11:29:05.061Z,101153.03
2023-12-11T11:31:52.162Z,101153.34
2023-12-11T11:34:41.078Z,101149.88
2023-12-11T11:37:09.503Z,101141.03
2023-12-11T11:40:03.581Z,101138.94
2023-12-11T11:42:33.522Z,101138.47
2023-12-11T11:45:03.450Z,101129.00
2023-12-11T11:47:33.144Z,101133.59
2023-12-11T11:50:17.453Z,101129.00
2023-12-11T11:52:52.184Z,101105.75
2023-12-11T11:55:27.715Z,101123.00
2023-12-11T11:57:55.687Z,101126.31
2023-12-11T12:00:32.442Z,101110.34
2023-12-11T12:03:02.138Z,101105.41
2023-12-11T12:05:29.500Z,101104.97
2023-12-11T12:07:57.341Z,101111.28
2023-12-11T12:10:25.323Z,101113.34
2023-12-11T12:13:02.397Z,101107.19
2023-12-11T12:15:29.923Z,101115.06
2023-12-11T12:18:10.165Z,101114.75
2023-12-11T12:20:37.539Z,101076.78
2023-12-11T12:23:07.969Z,101084.50
2023-12-11T12:25:36.339Z,101086.72
2023-12-11T12:28:15.121Z,101079.16
2023-12-11T12:30:42.780Z,101092.13
2023-12-11T12:33:12.490Z,101084.06
2023-12-11T12:35:40.483Z,101093.72
2023-12-11T12:38:08.823Z,101080.25
2023-12-11T12:40:36.876Z,101079.63
2023-12-11T12:43:11.867Z,101082.44
2023-12-11T12:45:39.655Z,101078.63
2023-12-11T12:48:09.648Z,101074.22
2023-12-11T12:50:37.339Z,101071.84
2023-12-11T12:53:13.243Z,101057.00
2023-12-11T12:55:40.998Z,101077.09
2023-12-11T12:58:09.657Z,101061.28
2023-12-11T13:00:37.721Z,101053.84
2023-12-11T13:03:08.945Z,101059.06
2023-12-11T13:05:45.334Z,101053.38
2023-12-11T13:08:15.926Z,101040.72
2023-12-11T13:10:57.692Z,101028.38
2023-12-11T13:13:28.083Z,101058.72
2023-12-11T13:15:57.611Z,101052.84
2023-12-11T13:18:26.527Z,101068.34
2023-12-11T13:20:54.035Z,101081.31
2023-12-11T13:23:21.283Z,101088.78
2023-12-11T13:25:49.029Z,101088.59
2023-12-11T13:28:16.237Z,101093.38
2023-12-11T13:30:43.576Z,101074.53
2023-12-11T13:33:11.283Z,101091.34
2023-12-11T13:35:38.519Z,101101.16
2023-12-11T13:38:05.758Z,101085.47
2023-12-11T13:40:32.998Z,101078.91
2023-12-11T13:43:00.296Z,101075.44
2023-12-11T13:45:28.904Z,101098.31
2023-12-11T13:47:56.242Z,101067.75
2023-12-11T13:50:23.557Z,101058.88
2023-12-11T13:52:51.247Z,101063.34
2023-12-11T13:55:18.587Z,101065.47
2023-12-11T13:57:45.876Z,101040.94
2023-12-11T14:00:16.720Z,101069.28
2023-12-11T14:03:00.713Z,101061.03
2023-12-11T14:05:34.106Z,101048.59
2023-12-11T14:08:03.842Z,101031.28
2023-12-11T14:10:37.819Z,101037.75
2023-12-11T14:13:05.220Z,101044.03
2023-12-11T14:15:32.467Z,101069.00
2023-12-11T14:17:59.886Z,101047.56
2023-12-11T14:20:27.126Z,101067.16
2023-12-11T14:22:54.198Z,101070.84
2023-12-11T14:25:21.552Z,101091.38
2023-12-11T14:27:48.874Z,101083.88
2023-12-11T14:30:16.107Z,101077.31
2023-12-11T14:32:43.406Z,101087.97
2023-12-11T14:35:11.234Z,101067.13
2023-12-11T14:37:41.809Z,101062.41
2023-12-11T14:40:09.357Z,101066.25
2023-12-11T14:42:36.532Z,101078.72
2023-12-11T14:45:04.230Z,101083.03
2023-12-11T14:47:31.735Z,101096.53
2023-12-11T14:49:59.372Z,101092.69
2023-12-11T14:52:27.593Z,101091.44
2023-12-11T14:54:54.869Z,101106.84
2023-12-11T14:57:22.095Z,101107.06
2023-12-11T14:59:49.216Z,101108.75
2023-12-11T15:02:17.374Z,101118.41
2023-12-11T15:04:44.485Z,101111.03
2023-12-11T15:07:12.614Z,101111.63
2023-12-11T15:09:40.825Z,101112.97
2023-12-11T15:12:08.868Z,101109.22
2023-12-11T15:14:36.413Z,101112.16
2023-12-11T15:17:03.851Z,101110.13
2023-12-11T15:19:31.102Z,101109.78
2023-12-11T15:21:58.273Z,101131.75
2023-12-11T15:24:25.526Z,101116.34
2023-12-11T15:26:55.619Z,101094.56
2023-12-11T15:29:22.882Z,101107.03
2023-12-11T15:31:50.230Z,101111.63
2023-12-11T15:34:17.470Z,101119.88
2023-12-11T15:36:44.695Z,101120.41
2023-12-11T15:39:11.910Z,101123.81
2023-12-11T15:41:39.128Z,101132.28
2023-12-11T15:44:06.270Z,101137.59
2023-12-11T15:46:33.522Z,101142.22
2023-12-11T15:49:02.163Z,101111.31
2023-12-11T15:51:30.477Z,101124.94
2023-12-11T15:53:57.725Z,101151.81
2023-12-11T15:56:24.946Z,101149.84
2023-12-11T15:58:52.040Z,101146.66
2023-12-11T16:01:19.357Z,101138.03
2023-12-11T16:03:46.759Z,101150.56
2023-12-11T16:06:14.097Z,101113.03
2023-12-11T16:08:41.600Z,101125.03
2023-12-11T16:11:08.853Z,101139.97
2023-12-11T16:13:35.942Z,101133.34
2023-12-11T16:16:03.848Z,101143.34
2023-12-11T16:18:31.228Z,101166.84
2023-12-11T16:20:59.200Z,101126.38
2023-12-11T16:23:26.784Z,101133.53
2023-12-11T16:26:00.245Z,101137.69
2023-12-11T16:28:32.393Z,101157.38
2023-12-11T16:30:59.746Z,101092.81
2023-12-11T16:33:27.459Z,101160.81
2023-12-11T16:35:54.712Z,101139.22
2023-12-11T16:38:23.101Z,101141.03
2023-12-11T16:40:50.344Z,101126.28
2023-12-11T16:43:19.026Z,101122.50
2023-12-11T16:45:46.841Z,101138.38
2023-12-11T16:48:14.463Z,101132.53
2023-12-11T16:50:44.399Z,101112.97
2023-12-11T16:53:11.874Z,101131.59
2023-12-11T16:55:39.729Z,101142.44
2023-12-11T16:58:08.726Z,101129.56
2023-12-11T17:00:35.989Z,101121.34
2023-12-11T17:03:03.196Z,101114.03
2023-12-11T17:05:30.580Z,101118.44
2023-12-11T17:07:58.993Z,101115.34
2023-12-11T17:10:26.377Z,101099.91
2023-12-11T17:12:53.716Z,101110.13
2023-12-11T17:15:21.040Z,101100.66
2023-12-11T17:17:48.210Z,101075.16
2023-12-11T17:20:15.626Z,101115.06
2023-12-11T17:22:43.041Z,101115.94
2023-12-11T17:25:10.388Z,101100.28
2023-12-11T17:27:37.480Z,101093.94
2023-12-11T17:30:05.232Z,101115.22
2023-12-11T17:32:33.138Z,101113.44
2023-12-11T17:35:02.948Z,101102.84
2023-12-11T17:37:30.531Z,101098.88
2023-12-11T17:39:57.741Z,101113.78
2023-12-11T17:42:27.272Z,101117.31
2023-12-11T17:44:54.553Z,101128.25
2023-12-11T17:47:21.869Z,101112.59
2023-12-11T17:49:49.277Z,101118.69
2023-12-11T17:52:16.649Z,101118.78
2023-12-11T17:54:44.029Z,101121.59
2023-12-11T17:57:11.254Z,101110.53
2023-12-11T17:59:38.430Z,101124.94
2023-12-11T18:02:05.996Z,101139.03
2023-12-11T18:04:33.426Z,101142.66
2023-12-11T18:07:00.670Z,101134.38
2023-12-11T18:09:27.904Z,101128.38
2023-12-11T18:11:55.092Z,101125.91
2023-12-11T18:14:24.175Z,101128.28
2023-12-11T18:16:51.331Z,101117.06
2023-12-11T18:19:18.646Z,101123.09
2023-12-11T18:21:46.400Z,101123.50
2023-12-11T18:24:13.737Z,101095.81
2023-12-11T18:26:40.969Z,101124.50
2023-12-11T18:29:08.254Z,101115.78
2023-12-11T18:31:35.679Z,101105.72
2023-12-11T18:34:03.137Z,101099.38
2023-12-11T18:36:30.547Z,101090.91
2023-12-11T18:38:57.748Z,101068.47
2023-12-11T18:41:25.026Z,101021.75
2023-12-11T18:43:52.303Z,101037.88
2023-12-11T18:46:22.332Z,101040.44
2023-12-11T18:48:49.826Z,101009.34
2023-12-11T18:51:31.416Z,101025.59
2023-12-11T18:53:59.118Z,101021.34
2023-12-11T18:56:26.658Z,101023.44
2023-12-11T18:58:54.396Z,101043.69
2023-12-11T19:01:22.583Z,101042.66
2023-12-11T19:03:50.122Z,101045.84
2023-12-11T19:06:17.956Z,101041.06
2023-12-11T19:08:45.873Z,101035.63
2023-12-11T19:11:17.306Z,101066.16
2023-12-11T19:13:44.538Z,101046.06
2023-12-11T19:16:11.730Z,101043.25
2023-12-11T19:18:39.043Z,101038.91
2023-12-11T19:21:07.022Z,101038.44
2023-12-11T19:23:34.264Z,101043.00
2023-12-11T19:26:01.339Z,101062.69
2023-12-11T19:28:28.734Z,101038.38
2023-12-11T19:30:56.016Z,101049.53
2023-12-11T19:33:23.319Z,101038.38
2023-12-11T19:35:53.222Z,101051.31
2023-12-11T19:38:20.442Z,101065.25
2023-12-11T19:40:47.512Z,101066.00
2023-12-11T19:43:14.746Z,101068.00
2023-12-11T19:45:42.104Z,101017.81
2023-12-11T19:48:09.438Z,101057.97
2023-12-11T19:50:36.753Z,101081.25
2023-12-11T19:53:03.911Z,101082.06
2023-12-11T19:55:31.184Z,101087.31
2023-12-11T19:57:58.377Z,101063.50
2023-12-11T20:00:25.957Z,101088.38
2023-12-11T20:02:53.129Z,101070.44
2023-12-11T20:05:20.375Z,101088.44
2023-12-11T20:07:47.505Z,101084.34
2023-12-11T20:10:16.636Z,101075.94
2023-12-11T20:12:43.995Z,101085.13
2023-12-11T20:15:14.237Z,101092.13
2023-12-11T20:17:41.954Z,101117.66
2023-12-11T20:20:09.891Z,101109.34
2023-12-11T20:22:37.277Z,101110.91
2023-12-11T20:25:04.950Z,101119.72
2023-12-11T20:27:33.620Z,101125.97
2023-12-11T20:30:01.254Z,101114.88
2023-12-11T20:32:28.536Z,101082.09
2023-12-11T20:34:55.817Z,101123.53
2023-12-11T20:37:23.093Z,101121.88
2023-12-11T20:39:50.229Z,101109.34
2023-12-11T20:42:18.864Z,101106.16
2023-12-11T20:44:45.981Z,101108.59
2023-12-11T20:47:13.311Z,101061.72
2023-12-11T20:49:40.653Z,101137.44
2023-12-11T20:52:07.928Z,101134.56
2023-12-11T20:54:35.092Z,101141.31
2023-12-11T20:57:02.241Z,101167.59
2023-12-11T20:59:29.473Z,101180.81
2023-12-11T21:01:56.852Z,101169.56
2023-12-11T21:04:24.941Z,101170.31
2023-12-11T21:06:52.177Z,101185.88
2023-12-11T21:09:19.505Z,101166.00
2023-12-11T21:11:46.664Z,101183.75
2023-12-11T21:14:13.872Z,101171.00
2023-12-11T21:16:41.538Z,101138.19
2023-12-11T21:19:08.916Z,101145.97
2023-12-11T21:21:37.021Z,101189.69
2023-12-11T21:24:04.663Z,101181.53
2023-12-11T21:26:32.216Z,101150.25
2023-12-11T21:29:00.532Z,101160.19
2023-12-11T21:31:31.275Z,101172.97
2023-12-11T21:33:59.649Z,101183.63
2023-12-11T21:36:30.969Z,101205.19
2023-12-11T21:38:59.562Z,101199.66
2023-12-11T21:41:27.224Z,101202.22
2023-12-11T21:43:54.804Z,101214.59
2023-12-11T21:46:22.280Z,101207.72
2023-12-11T21:48:50.187Z,101204.78
2023-12-11T21:51:19.164Z,101215.72
2023-12-11T21:53:47.014Z,101220.44
2023-12-11T21:56:14.811Z,101218.34
2023-12-11T21:58:42.673Z,101198.94
2023-12-11T22:01:10.208Z,101135.81
2023-12-11T22:03:37.977Z,101204.72
2023-12-11T22:06:05.194Z,101204.16
2023-12-11T22:08:32.337Z,101194.91
2023-12-11T22:10:59.364Z,101185.97
2023-12-11T22:13:26.627Z,101174.81
2023-12-11T22:15:53.877Z,101179.97
2023-12-11T22:18:21.226Z,101164.50
2023-12-11T22:20:48.654Z,101128.72
2023-12-11T22:23:15.776Z,101101.00
2023-12-11T22:25:43.025Z,101092.25
2023-12-11T22:28:10.168Z,101096.91
2023-12-11T22:30:37.302Z,101096.44
2023-12-11T22:33:04.460Z,101089.88
2023-12-11T22:35:31.521Z,101099.03
2023-12-11T22:37:58.780Z,101111.06
2023-12-11T22:40:25.934Z,101104.56
2023-12-11T22:42:53.182Z,101084.44
2023-12-11T22:45:22.582Z,101090.13
2023-12-11T22:47:50.132Z,101100.63
2023-12-11T22:50:17.376Z,101146.56
2023-12-11T22:52:44.564Z,101120.84
2023-12-11T22:55:11.833Z,101110.53
2023-12-11T22:57:40.564Z,101091.94
2023-12-11T23:00:11.957Z,101073.91
2023-12-11T23:02:39.799Z,101087.66
2023-12-11T23:05:07.477Z,101093.56
2023-12-11T23:07:34.987Z,101087.94
2023-12-11T23:10:02.545Z,101083.44
2023-12-11T23:12:29.740Z,101078.53
2023-12-11T23:14:56.791Z,101073.28
2023-12-11T23:17:23.966Z,101081.34
2023-12-11T23:19:51.183Z,101097.66
2023-12-11T23:22:18.416Z,101085.22
2023-12-11T23:24:45.530Z,101095.28
2023-12-11T23:27:12.679Z,101081.66
2023-12-11T23:29:42.081Z,101084.09
2023-12-11T23:32:09.352Z,101112.19
2023-12-11T23:34:36.456Z,101102.47
2023-12-11T23:37:03.679Z,101111.50
2023-12-11T23:39:30.778Z,101132.41
2023-12-11T23:41:57.883Z,101122.66
2023-12-11T23:44:24.984Z,101088.03
2023-12-11T23:46:52.134Z,101097.44
2023-12-11T23:49:19.389Z,101088.44
2023-12-11T23:51:46.552Z,101082.81
2023-12-11T23:54:13.632Z,101078.22
2023-12-11T23:56:40.796Z,101093.81
2023-12-11T23:59:09.983Z,101086.56
